logo
Rechercher aéroport 
image banner adimage banner adimage banner ad
image banner ad

HKBC - Black Marlin

Situé à Msambweni, Kenya

ICAO - , IATA -

Données fournies par Airmate  

Information générale

Coordonnées: S4°30'8" E39°28'3"
Élévation : 15 feet MSL.
Variation magnétique : -1° East
Voir autres Aéroports à Coast Province

Données opérationnelles

Special qualification required
Heure actuelle UTC:
Heure actuelle locale:
Météo à : HKMO - Mombasa Moi Intl ( 55 km )
METAR: HKMO 290800Z 20014KT 9999 FEW025 30/20 Q1016 NOSIG
Voir NOTAMs / SUP AIP / TFR affectant cet aéroport [VIEW]
Fréquences de communication: [VIEW]

Pistes:

Identifiant RWYQFULongueur (ft)Largeur (ft)SurfaceLDA (ft)
0600UNK
2400UNK
1200UNK
3000UNK

Coordonnées de l'aéroport

Adresse: Msambweni Kenya

Vue satellite de HKBC